Laupahoehoe, Hawaii
Current Conditions -  °F | °C
As of 7:53 PM on Friday 24 Oct 2014 (Local Time) from PHTO Reporting Station
Clear Clear  
Wind Chill: 75°   Ceiling: Unl
Heat Index: 75°   Visibility: 10mi
Dew Point: 70°   Wind: 3mph
Humidity: 84%   Direction: 230°SW
Pressure: 30.05"   Gusts: NA
Location:  19.98°N, 155.24°W
Report Text: PHTO 250553Z 23003KT 10SM CLR 24/21 A3005 RMK AO2 SLP176 T02390211 10294 20233 53018
Loading
Personal Weather Stations






























Interactive Weather Map
Tropical Storm Tracking
New forecast layout! Learn more

10-Day Weather Forecast

Advertisements
Track Severe Weather on mobile